UTA290 LBWN-USPP
Flight info
| Callsign | UTA290 |
|---|---|
| Flight time | 3h 12m |
| Altitude | 35000 |
| Route | NEDSI DCT OSDOR/K0846F360 L63 ETNIL/K0846F350 L63 DITIX N604 NIKAD/K0852F370 L68 LUZKA N604 PISAR T766 SONUM T789 GUBOM T173 BESLO L94 GEMKI T765 INGEN W63 ULPET |
| Aircraft | B738/M-SDE2E3FGHIRWXY/LB1 |
Departure
| Time | 2026-04-25 12:19 |
|---|---|
| Airport | Varna Airport (LBWN) |
Arrival
| Time | 2026-04-25 15:31 |
|---|---|
| Airport | Perm International Airport (USPP) |
| Time | Latitude | Longitude | Altitude | Speed | Heading |
|---|---|---|---|---|---|
| 2026-04-25 11:51 | 43.23488 | 27.82843 | 221 ft | 0 kts | 6° |
| 2026-04-25 12:10 | 43.23505 | 27.82845 | 221 ft | 5 kts | 6° |
| 2026-04-25 12:11 | 43.23538 | 27.82835 | 221 ft | 5 kts | 318° |
| 2026-04-25 12:11 | 43.23552 | 27.82784 | 221 ft | 7 kts | 278° |
| 2026-04-25 12:11 | 43.23559 | 27.82701 | 221 ft | 10 kts | 276° |
| 2026-04-25 12:11 | 43.23566 | 27.82605 | 221 ft | 10 kts | 276° |
| 2026-04-25 12:12 | 43.23574 | 27.82512 | 221 ft | 10 kts | 276° |
| 2026-04-25 12:12 | 43.23579 | 27.82451 | 221 ft | 10 kts | 276° |
| 2026-04-25 12:12 | 43.23589 | 27.82333 | 221 ft | 9 kts | 276° |
| 2026-04-25 12:12 | 43.23565 | 27.82264 | 221 ft | 9 kts | 206° |
| 2026-04-25 12:13 | 43.23526 | 27.82253 | 221 ft | 8 kts | 187° |
| 2026-04-25 12:13 | 43.23479 | 27.82182 | 221 ft | 10 kts | 269° |
| 2026-04-25 12:13 | 43.23485 | 27.82101 | 221 ft | 14 kts | 277° |
| 2026-04-25 12:13 | 43.23498 | 27.81964 | 221 ft | 14 kts | 277° |
| 2026-04-25 12:14 | 43.23510 | 27.81832 | 221 ft | 14 kts | 277° |
| 2026-04-25 12:14 | 43.23524 | 27.81667 | 221 ft | 13 kts | 277° |
| 2026-04-25 12:14 | 43.23531 | 27.81585 | 221 ft | 13 kts | 277° |
| 2026-04-25 12:14 | 43.23541 | 27.81466 | 221 ft | 12 kts | 277° |
| 2026-04-25 12:15 | 43.23551 | 27.81351 | 221 ft | 12 kts | 277° |
| 2026-04-25 12:15 | 43.23561 | 27.81238 | 221 ft | 12 kts | 277° |
| 2026-04-25 12:15 | 43.23571 | 27.81130 | 223 ft | 11 kts | 278° |
| 2026-04-25 12:15 | 43.23577 | 27.81034 | 221 ft | 9 kts | 265° |
| 2026-04-25 12:16 | 43.23554 | 27.80954 | 221 ft | 8 kts | 229° |
| 2026-04-25 12:16 | 43.23521 | 27.80926 | 221 ft | 0 kts | 199° |
| 2026-04-25 12:17 | 43.23506 | 27.80920 | 221 ft | 7 kts | 191° |
| 2026-04-25 12:17 | 43.23441 | 27.80944 | 221 ft | 11 kts | 151° |
| 2026-04-25 12:17 | 43.23378 | 27.80994 | 220 ft | 10 kts | 148° |
| 2026-04-25 12:17 | 43.23330 | 27.81062 | 220 ft | 10 kts | 117° |
| 2026-04-25 12:18 | 43.23319 | 27.81127 | 220 ft | 0 kts | 96° |
| 2026-04-25 12:18 | 43.23319 | 27.81132 | 220 ft | 7 kts | 96° |
| 2026-04-25 12:18 | 43.23284 | 27.81527 | 221 ft | 76 kts | 97° |
| 2026-04-25 12:18 | 43.23195 | 27.82537 | 223 ft | 135 kts | 97° |
| 2026-04-25 12:19 | 43.22944 | 27.84902 | 997 ft | 160 kts | 99° |
| 2026-04-25 12:19 | 43.22738 | 27.87073 | 1753 ft | 182 kts | 99° |
| 2026-04-25 12:19 | 43.22797 | 27.88824 | 2525 ft | 183 kts | 76° |
| 2026-04-25 12:20 | 43.23122 | 27.90529 | 3287 ft | 190 kts | 76° |
| 2026-04-25 12:20 | 43.23446 | 27.92382 | 3764 ft | 214 kts | 76° |
| 2026-04-25 12:20 | 43.23801 | 27.94472 | 4018 ft | 237 kts | 76° |
| 2026-04-25 12:20 | 43.24179 | 27.96772 | 4368 ft | 254 kts | 76° |
| 2026-04-25 12:21 | 43.24576 | 27.99221 | 4725 ft | 276 kts | 77° |
| 2026-04-25 12:21 | 43.25014 | 28.01927 | 4955 ft | 304 kts | 77° |
| 2026-04-25 12:21 | 43.25490 | 28.04889 | 5204 ft | 331 kts | 77° |
| 2026-04-25 12:21 | 43.25993 | 28.08048 | 5513 ft | 352 kts | 77° |
| 2026-04-25 12:22 | 43.26520 | 28.11376 | 6218 ft | 359 kts | 78° |
| 2026-04-25 12:22 | 43.27050 | 28.14742 | 7038 ft | 362 kts | 78° |
| 2026-04-25 12:22 | 43.27583 | 28.18137 | 7801 ft | 366 kts | 78° |
| 2026-04-25 12:22 | 43.28123 | 28.21579 | 8533 ft | 371 kts | 78° |
| 2026-04-25 12:23 | 43.28669 | 28.25067 | 9256 ft | 376 kts | 78° |
| 2026-04-25 12:23 | 43.29222 | 28.28604 | 9971 ft | 381 kts | 78° |
| 2026-04-25 12:23 | 43.29779 | 28.32180 | 10443 ft | 384 kts | 78° |
| 2026-04-25 12:23 | 43.30338 | 28.35769 | 10520 ft | 385 kts | 78° |
| 2026-04-25 12:24 | 43.30897 | 28.39374 | 10532 ft | 386 kts | 78° |
| 2026-04-25 12:24 | 43.31457 | 28.42989 | 10541 ft | 387 kts | 78° |
| 2026-04-25 12:24 | 43.32016 | 28.46601 | 10546 ft | 387 kts | 78° |
| 2026-04-25 12:24 | 43.32574 | 28.50218 | 10546 ft | 388 kts | 78° |
| 2026-04-25 12:25 | 43.33315 | 28.53772 | 10525 ft | 387 kts | 63° |
| 2026-04-25 12:25 | 43.34871 | 28.56752 | 10549 ft | 384 kts | 43° |
| 2026-04-25 12:25 | 43.36992 | 28.58950 | 10553 ft | 382 kts | 31° |
| 2026-04-25 12:25 | 43.39231 | 28.60909 | 10540 ft | 382 kts | 30° |
| 2026-04-25 12:26 | 43.41492 | 28.62859 | 10677 ft | 386 kts | 30° |
| 2026-04-25 12:26 | 43.43779 | 28.64833 | 11384 ft | 387 kts | 30° |
| 2026-04-25 12:26 | 43.46027 | 28.66785 | 12131 ft | 388 kts | 30° |
| 2026-04-25 12:26 | 43.48317 | 28.68787 | 12811 ft | 391 kts | 31° |
| 2026-04-25 12:27 | 43.50629 | 28.70819 | 13481 ft | 395 kts | 31° |
| 2026-04-25 12:27 | 43.52951 | 28.72869 | 14103 ft | 398 kts | 31° |
| 2026-04-25 12:27 | 43.55289 | 28.74939 | 14673 ft | 401 kts | 31° |
| 2026-04-25 12:27 | 43.57648 | 28.77032 | 15259 ft | 404 kts | 31° |
| 2026-04-25 12:28 | 43.60022 | 28.79142 | 15842 ft | 407 kts | 31° |
| 2026-04-25 12:28 | 43.62414 | 28.81270 | 16419 ft | 411 kts | 31° |
| 2026-04-25 12:28 | 43.64832 | 28.83423 | 16930 ft | 415 kts | 31° |
| 2026-04-25 12:28 | 43.67267 | 28.85593 | 17500 ft | 418 kts | 31° |
| 2026-04-25 12:29 | 43.69717 | 28.87780 | 18055 ft | 421 kts | 31° |
| 2026-04-25 12:29 | 43.72184 | 28.89983 | 18558 ft | 424 kts | 31° |
| 2026-04-25 12:29 | 43.74668 | 28.92204 | 19043 ft | 426 kts | 31° |
| 2026-04-25 12:29 | 43.77135 | 28.94412 | 19543 ft | 428 kts | 31° |
| 2026-04-25 12:30 | 43.79645 | 28.96661 | 20018 ft | 431 kts | 31° |
| 2026-04-25 12:30 | 43.82171 | 28.98926 | 20479 ft | 434 kts | 30° |
| 2026-04-25 12:30 | 43.84714 | 29.01209 | 20961 ft | 436 kts | 30° |
| 2026-04-25 12:30 | 43.87265 | 29.03501 | 21419 ft | 438 kts | 30° |
| 2026-04-25 12:31 | 43.89838 | 29.05816 | 21860 ft | 441 kts | 30° |
| 2026-04-25 12:31 | 43.92421 | 29.08141 | 22289 ft | 443 kts | 30° |
| 2026-04-25 12:31 | 43.95016 | 29.10480 | 22731 ft | 446 kts | 30° |
| 2026-04-25 12:31 | 43.97627 | 29.12836 | 23138 ft | 448 kts | 30° |
| 2026-04-25 12:32 | 44.00247 | 29.15203 | 23551 ft | 451 kts | 30° |
| 2026-04-25 12:32 | 44.02878 | 29.17582 | 23907 ft | 453 kts | 30° |
| 2026-04-25 12:32 | 44.05491 | 29.19948 | 24263 ft | 454 kts | 30° |
| 2026-04-25 12:32 | 44.08141 | 29.22350 | 24629 ft | 455 kts | 30° |
| 2026-04-25 12:33 | 44.10796 | 29.24759 | 24974 ft | 457 kts | 30° |
| 2026-04-25 12:33 | 44.13465 | 29.27183 | 25287 ft | 459 kts | 30° |
| 2026-04-25 12:33 | 44.16145 | 29.29620 | 25623 ft | 460 kts | 30° |
| 2026-04-25 12:33 | 44.18827 | 29.32061 | 25975 ft | 461 kts | 30° |
| 2026-04-25 12:34 | 44.21520 | 29.34515 | 26272 ft | 463 kts | 30° |
| 2026-04-25 12:34 | 44.24221 | 29.36979 | 26562 ft | 465 kts | 30° |
| 2026-04-25 12:34 | 44.26934 | 29.39457 | 26887 ft | 466 kts | 30° |
| 2026-04-25 12:34 | 44.28731 | 29.41100 | 27086 ft | 467 kts | 30° |
| 2026-04-25 12:35 | 44.32387 | 29.44445 | 27395 ft | 471 kts | 30° |
| 2026-04-25 12:35 | 44.35129 | 29.46957 | 27734 ft | 471 kts | 30° |
| 2026-04-25 12:35 | 44.37862 | 29.49466 | 28139 ft | 469 kts | 30° |
| 2026-04-25 12:35 | 44.40550 | 29.51936 | 28585 ft | 467 kts | 30° |
| 2026-04-25 12:36 | 44.43252 | 29.54422 | 29046 ft | 464 kts | 30° |
| 2026-04-25 12:36 | 44.45946 | 29.56903 | 29477 ft | 463 kts | 30° |
| 2026-04-25 12:36 | 44.48634 | 29.59380 | 29833 ft | 463 kts | 30° |
| 2026-04-25 12:36 | 44.51324 | 29.61861 | 30180 ft | 462 kts | 30° |
| 2026-04-25 12:37 | 44.54001 | 29.64333 | 30529 ft | 460 kts | 30° |
| 2026-04-25 12:37 | 44.56669 | 29.66801 | 30885 ft | 458 kts | 30° |
| 2026-04-25 12:37 | 44.59329 | 29.69263 | 31206 ft | 457 kts | 30° |
| 2026-04-25 12:37 | 44.61980 | 29.71720 | 31498 ft | 457 kts | 30° |
| 2026-04-25 12:38 | 44.64633 | 29.74180 | 31788 ft | 457 kts | 30° |
| 2026-04-25 12:38 | 44.67283 | 29.76641 | 32067 ft | 456 kts | 30° |
| 2026-04-25 12:38 | 44.69929 | 29.79101 | 32405 ft | 455 kts | 30° |
| 2026-04-25 12:38 | 44.72558 | 29.81550 | 32739 ft | 453 kts | 30° |
| 2026-04-25 12:39 | 44.75186 | 29.83998 | 33035 ft | 452 kts | 30° |
| 2026-04-25 12:39 | 44.77809 | 29.86446 | 33312 ft | 452 kts | 30° |
| 2026-04-25 12:39 | 44.80429 | 29.88893 | 33604 ft | 451 kts | 30° |
| 2026-04-25 12:39 | 44.83039 | 29.91334 | 33902 ft | 450 kts | 30° |
| 2026-04-25 12:40 | 44.85641 | 29.93769 | 34172 ft | 449 kts | 30° |
| 2026-04-25 12:40 | 44.88243 | 29.96208 | 34377 ft | 449 kts | 30° |
| 2026-04-25 12:40 | 44.90846 | 29.98649 | 34558 ft | 450 kts | 30° |
| 2026-04-25 12:40 | 44.93420 | 30.01065 | 34756 ft | 449 kts | 30° |
| 2026-04-25 12:41 | 44.96015 | 30.03517 | 34973 ft | 449 kts | 31° |
| 2026-04-25 12:41 | 45.00638 | 30.09648 | 35059 ft | 462 kts | 45° |
| 2026-04-25 12:42 | 45.04796 | 30.16595 | 35098 ft | 463 kts | 46° |
| 2026-04-25 12:42 | 45.06169 | 30.18906 | 35216 ft | 463 kts | 46° |
| 2026-04-25 12:42 | 45.08941 | 30.23543 | 35545 ft | 461 kts | 46° |
| 2026-04-25 12:42 | 45.11018 | 30.26995 | 35808 ft | 459 kts | 45° |
| 2026-04-25 12:43 | 45.13090 | 30.30423 | 36024 ft | 458 kts | 45° |
| 2026-04-25 12:43 | 45.19372 | 30.40794 | 36036 ft | 463 kts | 45° |
| 2026-04-25 12:44 | 45.23525 | 30.47672 | 36039 ft | 461 kts | 45° |
| 2026-04-25 12:45 | 45.29754 | 30.58023 | 36036 ft | 459 kts | 45° |
| 2026-04-25 12:45 | 45.35968 | 30.68386 | 36040 ft | 459 kts | 45° |
| 2026-04-25 12:46 | 45.40103 | 30.75305 | 36044 ft | 459 kts | 46° |
| 2026-04-25 12:46 | 45.44242 | 30.82246 | 36044 ft | 461 kts | 46° |
| 2026-04-25 12:47 | 45.48396 | 30.89231 | 36046 ft | 463 kts | 46° |
| 2026-04-25 12:47 | 45.52564 | 30.96256 | 36046 ft | 465 kts | 46° |
| 2026-04-25 12:48 | 45.56745 | 31.03322 | 36043 ft | 467 kts | 46° |
| 2026-04-25 12:48 | 45.60934 | 31.10419 | 36042 ft | 469 kts | 46° |
| 2026-04-25 12:49 | 45.65113 | 31.17517 | 36036 ft | 470 kts | 46° |
| 2026-04-25 12:49 | 45.69325 | 31.24691 | 35808 ft | 472 kts | 46° |
| 2026-04-25 12:50 | 45.71432 | 31.28289 | 35555 ft | 470 kts | 46° |
| 2026-04-25 12:50 | 45.73524 | 31.31864 | 35334 ft | 467 kts | 46° |
| 2026-04-25 12:50 | 45.75611 | 31.35433 | 35120 ft | 467 kts | 46° |
| 2026-04-25 12:50 | 45.77692 | 31.38995 | 35064 ft | 467 kts | 46° |
| 2026-04-25 12:51 | 45.82046 | 31.45924 | 35050 ft | 468 kts | 43° |
| 2026-04-25 12:51 | 45.86546 | 31.52685 | 35031 ft | 469 kts | 42° |
| 2026-04-25 12:52 | 45.91056 | 31.59489 | 35042 ft | 470 kts | 43° |
| 2026-04-25 12:52 | 45.95534 | 31.66329 | 35033 ft | 470 kts | 43° |
| 2026-04-25 12:53 | 45.99972 | 31.73155 | 35035 ft | 470 kts | 43° |
| 2026-04-25 12:53 | 46.04432 | 31.80036 | 35045 ft | 470 kts | 43° |
| 2026-04-25 12:54 | 46.08896 | 31.86936 | 35035 ft | 470 kts | 43° |
| 2026-04-25 12:54 | 46.13357 | 31.93850 | 35032 ft | 470 kts | 43° |
| 2026-04-25 12:55 | 46.17055 | 31.99594 | 35032 ft | 470 kts | 43° |
| 2026-04-25 12:55 | 46.22259 | 32.07698 | 35033 ft | 470 kts | 43° |
| 2026-04-25 12:56 | 46.26672 | 32.14588 | 35023 ft | 470 kts | 43° |
| 2026-04-25 12:56 | 46.31106 | 32.21530 | 35025 ft | 470 kts | 43° |
| 2026-04-25 12:57 | 46.35533 | 32.28478 | 35021 ft | 470 kts | 43° |
| 2026-04-25 12:57 | 46.39959 | 32.35443 | 35014 ft | 469 kts | 43° |
| 2026-04-25 12:58 | 46.44377 | 32.42413 | 35016 ft | 469 kts | 43° |
| 2026-04-25 12:58 | 46.48795 | 32.49401 | 35012 ft | 469 kts | 44° |
| 2026-04-25 12:59 | 46.53204 | 32.56394 | 35013 ft | 470 kts | 43° |
| 2026-04-25 12:59 | 46.57613 | 32.63404 | 35005 ft | 470 kts | 43° |
| 2026-04-25 13:00 | 46.60531 | 32.68054 | 35002 ft | 470 kts | 43° |
| 2026-04-25 13:00 | 46.66388 | 32.77411 | 34998 ft | 470 kts | 44° |
| 2026-04-25 13:01 | 46.70784 | 32.84456 | 35000 ft | 470 kts | 43° |
| 2026-04-25 13:01 | 46.75169 | 32.91537 | 34995 ft | 470 kts | 44° |
| 2026-04-25 13:02 | 46.79483 | 32.98720 | 34990 ft | 471 kts | 45° |
| 2026-04-25 13:02 | 46.83057 | 33.04721 | 35014 ft | 470 kts | 44° |
| 2026-04-25 13:03 | 46.87351 | 33.11928 | 34996 ft | 471 kts | 44° |
| 2026-04-25 13:03 | 46.91651 | 33.19147 | 34989 ft | 471 kts | 44° |
| 2026-04-25 13:04 | 46.95953 | 33.26381 | 34986 ft | 470 kts | 44° |
| 2026-04-25 13:04 | 47.00245 | 33.33620 | 34994 ft | 471 kts | 44° |
| 2026-04-25 13:05 | 47.04536 | 33.40874 | 34990 ft | 471 kts | 44° |
| 2026-04-25 13:05 | 47.08825 | 33.48146 | 34975 ft | 471 kts | 44° |
| 2026-04-25 13:06 | 47.13112 | 33.55436 | 34981 ft | 471 kts | 44° |
| 2026-04-25 13:06 | 47.17369 | 33.62693 | 34983 ft | 472 kts | 44° |
| 2026-04-25 13:07 | 47.21654 | 33.70017 | 34975 ft | 472 kts | 44° |
| 2026-04-25 13:07 | 47.25934 | 33.77353 | 34980 ft | 472 kts | 44° |
| 2026-04-25 13:08 | 47.30222 | 33.84724 | 35001 ft | 473 kts | 44° |
| 2026-04-25 13:08 | 47.34501 | 33.92097 | 34982 ft | 474 kts | 44° |
| 2026-04-25 13:09 | 47.38780 | 33.99491 | 34982 ft | 474 kts | 44° |
| 2026-04-25 13:09 | 47.43055 | 34.06900 | 34982 ft | 474 kts | 44° |
| 2026-04-25 13:10 | 47.47327 | 34.14323 | 34993 ft | 474 kts | 44° |
| 2026-04-25 13:10 | 47.51697 | 34.21503 | 34976 ft | 469 kts | 36° |
| 2026-04-25 13:11 | 47.56903 | 34.27106 | 34980 ft | 461 kts | 28° |
| 2026-04-25 13:11 | 47.62208 | 34.32459 | 34978 ft | 462 kts | 28° |
| 2026-04-25 13:12 | 47.67497 | 34.37895 | 34980 ft | 463 kts | 29° |
| 2026-04-25 13:12 | 47.71881 | 34.42457 | 34988 ft | 463 kts | 29° |
| 2026-04-25 13:13 | 47.78048 | 34.48907 | 34971 ft | 463 kts | 29° |
| 2026-04-25 13:13 | 47.83324 | 34.54436 | 34993 ft | 464 kts | 29° |
| 2026-04-25 13:14 | 47.88606 | 34.59982 | 34986 ft | 464 kts | 29° |
| 2026-04-25 13:14 | 47.93880 | 34.65534 | 34973 ft | 464 kts | 29° |
| 2026-04-25 13:15 | 47.99128 | 34.71062 | 34974 ft | 464 kts | 29° |
| 2026-04-25 13:15 | 48.04396 | 34.76622 | 34967 ft | 463 kts | 29° |
| 2026-04-25 13:16 | 48.09658 | 34.82192 | 34968 ft | 463 kts | 29° |
| 2026-04-25 13:16 | 48.14908 | 34.87764 | 34969 ft | 462 kts | 29° |
| 2026-04-25 13:17 | 48.20142 | 34.93334 | 34983 ft | 462 kts | 29° |
| 2026-04-25 13:17 | 48.25378 | 34.98920 | 34965 ft | 462 kts | 29° |
| 2026-04-25 13:18 | 48.30613 | 35.04520 | 34972 ft | 462 kts | 29° |
| 2026-04-25 13:18 | 48.35846 | 35.10137 | 34959 ft | 463 kts | 30° |
| 2026-04-25 13:19 | 48.40852 | 35.16214 | 34970 ft | 467 kts | 34° |
| 2026-04-25 13:19 | 48.44955 | 35.21526 | 34967 ft | 468 kts | 34° |
| 2026-04-25 13:20 | 48.50735 | 35.29004 | 34967 ft | 468 kts | 34° |
| 2026-04-25 13:20 | 48.55700 | 35.35370 | 34964 ft | 469 kts | 34° |
| 2026-04-25 13:21 | 48.60681 | 35.41747 | 34964 ft | 470 kts | 34° |
| 2026-04-25 13:21 | 48.65665 | 35.48144 | 34956 ft | 470 kts | 34° |
| 2026-04-25 13:22 | 48.70653 | 35.54568 | 34957 ft | 471 kts | 34° |
| 2026-04-25 13:23 | 48.78120 | 35.64215 | 35082 ft | 475 kts | 34° |
| 2026-04-25 13:23 | 48.80630 | 35.67467 | 35302 ft | 475 kts | 34° |
| 2026-04-25 13:23 | 48.83135 | 35.70719 | 35553 ft | 473 kts | 34° |
| 2026-04-25 13:23 | 48.85637 | 35.73972 | 35788 ft | 472 kts | 35° |
| 2026-04-25 13:24 | 48.88132 | 35.77219 | 35958 ft | 473 kts | 35° |
| 2026-04-25 13:24 | 48.90635 | 35.80479 | 36124 ft | 474 kts | 35° |
| 2026-04-25 13:24 | 48.93132 | 35.83737 | 36340 ft | 474 kts | 35° |
| 2026-04-25 13:24 | 48.95641 | 35.87014 | 36468 ft | 475 kts | 35° |
| 2026-04-25 13:25 | 48.98153 | 35.90299 | 36615 ft | 476 kts | 35° |
| 2026-04-25 13:25 | 49.00665 | 35.93581 | 36804 ft | 475 kts | 35° |
| 2026-04-25 13:25 | 49.03190 | 35.96816 | 36949 ft | 475 kts | 34° |
| 2026-04-25 13:26 | 49.08293 | 36.03271 | 36944 ft | 477 kts | 34° |
| 2026-04-25 13:26 | 49.13384 | 36.09737 | 36947 ft | 475 kts | 35° |
| 2026-04-25 13:27 | 49.18440 | 36.16201 | 36937 ft | 473 kts | 35° |
| 2026-04-25 13:27 | 49.23467 | 36.22652 | 36940 ft | 471 kts | 35° |
| 2026-04-25 13:28 | 49.28476 | 36.29092 | 36941 ft | 470 kts | 35° |
| 2026-04-25 13:28 | 49.33481 | 36.35547 | 36940 ft | 471 kts | 35° |
| 2026-04-25 13:29 | 49.38501 | 36.42043 | 36942 ft | 472 kts | 35° |
| 2026-04-25 13:29 | 49.43531 | 36.48570 | 36939 ft | 474 kts | 35° |
| 2026-04-25 13:30 | 49.51107 | 36.58434 | 36935 ft | 477 kts | 36° |
| 2026-04-25 13:31 | 49.58688 | 36.68349 | 36934 ft | 480 kts | 36° |
| 2026-04-25 13:31 | 49.63775 | 36.75027 | 36927 ft | 481 kts | 36° |
| 2026-04-25 13:32 | 49.68873 | 36.81737 | 36935 ft | 482 kts | 36° |
| 2026-04-25 13:32 | 49.73979 | 36.88476 | 36925 ft | 483 kts | 36° |
| 2026-04-25 13:33 | 49.79076 | 36.95225 | 36921 ft | 482 kts | 36° |
| 2026-04-25 13:33 | 49.84175 | 37.01995 | 36916 ft | 482 kts | 36° |
| 2026-04-25 13:34 | 49.89254 | 37.08757 | 36912 ft | 481 kts | 36° |
| 2026-04-25 13:34 | 49.94328 | 37.15533 | 36916 ft | 480 kts | 36° |
| 2026-04-25 13:35 | 49.99386 | 37.22305 | 36912 ft | 480 kts | 36° |
| 2026-04-25 13:35 | 50.04396 | 37.29033 | 36938 ft | 479 kts | 37° |
| 2026-04-25 13:36 | 50.09438 | 37.35824 | 36920 ft | 479 kts | 37° |
| 2026-04-25 13:36 | 50.14467 | 37.42617 | 36908 ft | 478 kts | 37° |
| 2026-04-25 13:37 | 50.19494 | 37.49427 | 36910 ft | 478 kts | 37° |
| 2026-04-25 13:37 | 50.24515 | 37.56248 | 36920 ft | 478 kts | 37° |
| 2026-04-25 13:38 | 50.29453 | 37.63251 | 36889 ft | 482 kts | 44° |
| 2026-04-25 13:38 | 50.33251 | 37.71959 | 36918 ft | 488 kts | 58° |
| 2026-04-25 13:39 | 50.36498 | 37.81312 | 36895 ft | 489 kts | 58° |
| 2026-04-25 13:39 | 50.39779 | 37.90572 | 36919 ft | 490 kts | 57° |
| 2026-04-25 13:40 | 50.43149 | 37.99948 | 36905 ft | 490 kts | 58° |
| 2026-04-25 13:40 | 50.46469 | 38.09230 | 36900 ft | 491 kts | 58° |
| 2026-04-25 13:41 | 50.49802 | 38.18592 | 36898 ft | 491 kts | 58° |
| 2026-04-25 13:41 | 50.53132 | 38.27981 | 36917 ft | 491 kts | 58° |
| 2026-04-25 13:42 | 50.56455 | 38.37380 | 36899 ft | 492 kts | 58° |
| 2026-04-25 13:42 | 50.59770 | 38.46795 | 36893 ft | 492 kts | 58° |
| 2026-04-25 13:43 | 50.63079 | 38.56227 | 36889 ft | 491 kts | 58° |
| 2026-04-25 13:43 | 50.66350 | 38.65582 | 36903 ft | 491 kts | 58° |
| 2026-04-25 13:44 | 50.69638 | 38.75023 | 36898 ft | 491 kts | 58° |
| 2026-04-25 13:44 | 50.72913 | 38.84462 | 36887 ft | 490 kts | 58° |
| 2026-04-25 13:45 | 50.76176 | 38.93900 | 36891 ft | 489 kts | 58° |
| 2026-04-25 13:45 | 50.79426 | 39.03338 | 36883 ft | 488 kts | 58° |
| 2026-04-25 13:46 | 50.82663 | 39.12770 | 36891 ft | 488 kts | 59° |
| 2026-04-25 13:46 | 50.85896 | 39.22229 | 36876 ft | 488 kts | 59° |
| 2026-04-25 13:47 | 50.89119 | 39.31693 | 36879 ft | 488 kts | 59° |
| 2026-04-25 13:47 | 50.92310 | 39.41097 | 36899 ft | 489 kts | 59° |
| 2026-04-25 13:48 | 50.95528 | 39.50618 | 36879 ft | 490 kts | 59° |
| 2026-04-25 13:48 | 50.98737 | 39.60150 | 36886 ft | 489 kts | 59° |
| 2026-04-25 13:49 | 51.01937 | 39.69674 | 36873 ft | 488 kts | 59° |
| 2026-04-25 13:49 | 51.05144 | 39.79158 | 36873 ft | 487 kts | 59° |
| 2026-04-25 13:50 | 51.08315 | 39.88683 | 36891 ft | 487 kts | 60° |
| 2026-04-25 13:50 | 51.11435 | 39.98231 | 36869 ft | 486 kts | 60° |
| 2026-04-25 13:51 | 51.14565 | 40.07773 | 36872 ft | 486 kts | 60° |
| 2026-04-25 13:51 | 51.17160 | 40.15696 | 36868 ft | 485 kts | 60° |
| 2026-04-25 13:52 | 51.20281 | 40.25232 | 36875 ft | 485 kts | 59° |
| 2026-04-25 13:52 | 51.23422 | 40.34763 | 36869 ft | 486 kts | 59° |
| 2026-04-25 13:53 | 51.26556 | 40.44315 | 36856 ft | 485 kts | 60° |
| 2026-04-25 13:53 | 51.29675 | 40.53868 | 36868 ft | 485 kts | 60° |
| 2026-04-25 13:54 | 51.33073 | 40.63149 | 36853 ft | 481 kts | 49° |
| 2026-04-25 13:54 | 51.37278 | 40.71451 | 36861 ft | 480 kts | 47° |
| 2026-04-25 13:55 | 51.41521 | 40.79705 | 36865 ft | 481 kts | 47° |
| 2026-04-25 13:55 | 51.45698 | 40.87993 | 36858 ft | 482 kts | 48° |
| 2026-04-25 13:56 | 51.49884 | 40.96401 | 36856 ft | 482 kts | 48° |
| 2026-04-25 13:56 | 51.54091 | 41.04887 | 36866 ft | 483 kts | 48° |
| 2026-04-25 13:57 | 51.58244 | 41.13286 | 36862 ft | 483 kts | 48° |
| 2026-04-25 13:57 | 51.62427 | 41.21771 | 36857 ft | 484 kts | 48° |
| 2026-04-25 13:58 | 51.66601 | 41.30260 | 36854 ft | 483 kts | 49° |
| 2026-04-25 13:58 | 51.70906 | 41.38562 | 36867 ft | 482 kts | 45° |
| 2026-04-25 13:59 | 51.75374 | 41.46620 | 36852 ft | 481 kts | 45° |
| 2026-04-25 13:59 | 51.79829 | 41.54684 | 36849 ft | 481 kts | 45° |
| 2026-04-25 14:00 | 51.84246 | 41.62793 | 36843 ft | 481 kts | 45° |
| 2026-04-25 14:00 | 51.88653 | 41.70944 | 36856 ft | 480 kts | 45° |
| 2026-04-25 14:01 | 51.93017 | 41.79041 | 36846 ft | 480 kts | 45° |
| 2026-04-25 14:01 | 51.97402 | 41.87199 | 36842 ft | 479 kts | 45° |
| 2026-04-25 14:02 | 52.01778 | 41.95366 | 36842 ft | 479 kts | 45° |
| 2026-04-25 14:02 | 52.06140 | 42.03535 | 36851 ft | 479 kts | 45° |
| 2026-04-25 14:03 | 52.10505 | 42.11730 | 36838 ft | 478 kts | 45° |
| 2026-04-25 14:03 | 52.14859 | 42.19913 | 36832 ft | 478 kts | 45° |
| 2026-04-25 14:04 | 52.19183 | 42.28058 | 36837 ft | 478 kts | 46° |
| 2026-04-25 14:04 | 52.23525 | 42.36265 | 36837 ft | 478 kts | 46° |
| 2026-04-25 14:05 | 52.27864 | 42.44495 | 36831 ft | 478 kts | 46° |
| 2026-04-25 14:05 | 52.32192 | 42.52734 | 36828 ft | 478 kts | 46° |
| 2026-04-25 14:06 | 52.36523 | 42.61004 | 36825 ft | 478 kts | 46° |
| 2026-04-25 14:06 | 52.40847 | 42.69290 | 36834 ft | 479 kts | 46° |
| 2026-04-25 14:07 | 52.45169 | 42.77595 | 36826 ft | 479 kts | 46° |
| 2026-04-25 14:07 | 52.50044 | 42.84839 | 36807 ft | 469 kts | 28° |
| 2026-04-25 14:08 | 52.55594 | 42.90430 | 36815 ft | 468 kts | 27° |
| 2026-04-25 14:08 | 52.61173 | 42.95975 | 36824 ft | 469 kts | 27° |
| 2026-04-25 14:09 | 52.66732 | 43.01600 | 36811 ft | 469 kts | 27° |
| 2026-04-25 14:09 | 52.72278 | 43.07283 | 36807 ft | 469 kts | 27° |
| 2026-04-25 14:10 | 52.77821 | 43.12994 | 36793 ft | 470 kts | 27° |
| 2026-04-25 14:10 | 52.83364 | 43.18720 | 36811 ft | 470 kts | 27° |
| 2026-04-25 14:11 | 52.88875 | 43.24428 | 36791 ft | 470 kts | 28° |
| 2026-04-25 14:11 | 52.94451 | 43.30219 | 36790 ft | 470 kts | 28° |
| 2026-04-25 14:12 | 52.99953 | 43.35952 | 36783 ft | 470 kts | 28° |
| 2026-04-25 14:12 | 53.05490 | 43.41739 | 36795 ft | 470 kts | 28° |
| 2026-04-25 14:13 | 53.11031 | 43.47547 | 36786 ft | 470 kts | 28° |
| 2026-04-25 14:13 | 53.16557 | 43.53358 | 36767 ft | 469 kts | 28° |
| 2026-04-25 14:14 | 53.22072 | 43.59175 | 36766 ft | 469 kts | 28° |
| 2026-04-25 14:14 | 53.27577 | 43.65000 | 36766 ft | 468 kts | 28° |
| 2026-04-25 14:15 | 53.33075 | 43.70836 | 36753 ft | 468 kts | 28° |
| 2026-04-25 14:15 | 53.38535 | 43.76650 | 36754 ft | 468 kts | 28° |
| 2026-04-25 14:16 | 53.44022 | 43.82508 | 36759 ft | 467 kts | 28° |
| 2026-04-25 14:16 | 53.49284 | 43.88963 | 36774 ft | 474 kts | 40° |
| 2026-04-25 14:17 | 53.53577 | 43.97476 | 36763 ft | 479 kts | 47° |
| 2026-04-25 14:17 | 53.57716 | 44.06263 | 36742 ft | 479 kts | 47° |
| 2026-04-25 14:18 | 53.61899 | 44.15012 | 36740 ft | 479 kts | 47° |
| 2026-04-25 14:18 | 53.66107 | 44.23738 | 36738 ft | 480 kts | 47° |
| 2026-04-25 14:19 | 53.70285 | 44.32426 | 36740 ft | 481 kts | 47° |
| 2026-04-25 14:19 | 53.74492 | 44.41211 | 36725 ft | 481 kts | 47° |
| 2026-04-25 14:20 | 53.78695 | 44.50010 | 36725 ft | 481 kts | 47° |
| 2026-04-25 14:20 | 53.82899 | 44.58827 | 36717 ft | 481 kts | 47° |
| 2026-04-25 14:21 | 53.87091 | 44.67650 | 36710 ft | 481 kts | 47° |
| 2026-04-25 14:21 | 53.91277 | 44.76485 | 36709 ft | 480 kts | 47° |
| 2026-04-25 14:22 | 53.95476 | 44.85294 | 36708 ft | 480 kts | 47° |
| 2026-04-25 14:22 | 53.99646 | 44.94050 | 36696 ft | 479 kts | 47° |
| 2026-04-25 14:23 | 54.03828 | 45.02879 | 36711 ft | 479 kts | 47° |
| 2026-04-25 14:23 | 54.08001 | 45.11724 | 36695 ft | 479 kts | 47° |
| 2026-04-25 14:24 | 54.12156 | 45.20588 | 36694 ft | 479 kts | 49° |
| 2026-04-25 14:24 | 54.15661 | 45.30323 | 36679 ft | 483 kts | 58° |
| 2026-04-25 14:25 | 54.18848 | 45.40403 | 36698 ft | 482 kts | 58° |
| 2026-04-25 14:25 | 54.22072 | 45.50432 | 36676 ft | 481 kts | 57° |
| 2026-04-25 14:26 | 54.25330 | 45.60422 | 36670 ft | 481 kts | 57° |
| 2026-04-25 14:26 | 54.28581 | 45.70408 | 36666 ft | 480 kts | 57° |
| 2026-04-25 14:27 | 54.31794 | 45.80346 | 36671 ft | 480 kts | 57° |
| 2026-04-25 14:27 | 54.35015 | 45.90364 | 36677 ft | 480 kts | 57° |
| 2026-04-25 14:28 | 54.38231 | 46.00406 | 36658 ft | 480 kts | 57° |
| 2026-04-25 14:28 | 54.41438 | 46.10453 | 36664 ft | 480 kts | 57° |
| 2026-04-25 14:29 | 54.44631 | 46.20523 | 36658 ft | 480 kts | 58° |
| 2026-04-25 14:29 | 54.47810 | 46.30612 | 36683 ft | 480 kts | 58° |
| 2026-04-25 14:30 | 54.50987 | 46.40731 | 36663 ft | 481 kts | 58° |
| 2026-04-25 14:30 | 54.55745 | 46.55962 | 36650 ft | 481 kts | 58° |
| 2026-04-25 14:31 | 54.58890 | 46.66078 | 36648 ft | 482 kts | 58° |
| 2026-04-25 14:31 | 54.61713 | 46.76591 | 36691 ft | 485 kts | 65° |
| 2026-04-25 14:32 | 54.64141 | 46.87478 | 36657 ft | 486 kts | 65° |
| 2026-04-25 14:32 | 54.66636 | 46.98326 | 36643 ft | 486 kts | 65° |
| 2026-04-25 14:33 | 54.68856 | 47.09369 | 36647 ft | 488 kts | 71° |
| 2026-04-25 14:33 | 54.70591 | 47.20724 | 36640 ft | 489 kts | 72° |
| 2026-04-25 14:34 | 54.72295 | 47.32104 | 36651 ft | 488 kts | 72° |
| 2026-04-25 14:34 | 54.74046 | 47.43454 | 36642 ft | 488 kts | 72° |
| 2026-04-25 14:35 | 54.75804 | 47.54729 | 36633 ft | 488 kts | 72° |
| 2026-04-25 14:35 | 54.77565 | 47.66096 | 36632 ft | 488 kts | 72° |
| 2026-04-25 14:36 | 54.79311 | 47.77458 | 36624 ft | 488 kts | 72° |
| 2026-04-25 14:36 | 54.81046 | 47.88842 | 36631 ft | 488 kts | 72° |
| 2026-04-25 14:37 | 54.82768 | 48.00222 | 36633 ft | 488 kts | 72° |
| 2026-04-25 14:37 | 54.84481 | 48.11610 | 36633 ft | 488 kts | 72° |
| 2026-04-25 14:38 | 54.86208 | 48.23002 | 36622 ft | 487 kts | 69° |
| 2026-04-25 14:38 | 54.89053 | 48.33513 | 36635 ft | 478 kts | 54° |
| 2026-04-25 14:39 | 54.92639 | 48.43251 | 36628 ft | 479 kts | 53° |
| 2026-04-25 14:39 | 54.96222 | 48.53040 | 36629 ft | 480 kts | 54° |
| 2026-04-25 14:40 | 54.99163 | 48.61239 | 36619 ft | 481 kts | 54° |
| 2026-04-25 14:40 | 55.02679 | 48.71143 | 36622 ft | 481 kts | 54° |
| 2026-04-25 14:41 | 55.06191 | 48.81076 | 36623 ft | 481 kts | 54° |
| 2026-04-25 14:41 | 55.09706 | 48.91047 | 36630 ft | 482 kts | 55° |
| 2026-04-25 14:42 | 55.12621 | 48.99343 | 36620 ft | 482 kts | 55° |
| 2026-04-25 14:42 | 55.17189 | 49.10353 | 36618 ft | 474 kts | 40° |
| 2026-04-25 14:43 | 55.22390 | 49.17211 | 36622 ft | 465 kts | 26° |
| 2026-04-25 14:43 | 55.28003 | 49.22687 | 36615 ft | 465 kts | 25° |
| 2026-04-25 14:44 | 55.33638 | 49.28288 | 36614 ft | 466 kts | 26° |
| 2026-04-25 14:44 | 55.39185 | 49.34233 | 36596 ft | 470 kts | 35° |
| 2026-04-25 14:45 | 55.43631 | 49.42759 | 36603 ft | 480 kts | 55° |
| 2026-04-25 14:45 | 55.46742 | 49.53211 | 36621 ft | 483 kts | 61° |
| 2026-04-25 14:46 | 55.49726 | 49.63835 | 36606 ft | 484 kts | 60° |
| 2026-04-25 14:46 | 55.52792 | 49.74400 | 36604 ft | 484 kts | 60° |
| 2026-04-25 14:47 | 55.55393 | 49.83160 | 36593 ft | 484 kts | 58° |
| 2026-04-25 14:47 | 55.59244 | 49.95280 | 36589 ft | 484 kts | 58° |
| 2026-04-25 14:48 | 55.62510 | 50.05695 | 36605 ft | 484 kts | 58° |
| 2026-04-25 14:48 | 55.65418 | 50.16493 | 36604 ft | 487 kts | 64° |
| 2026-04-25 14:49 | 55.67987 | 50.27508 | 36591 ft | 487 kts | 65° |
| 2026-04-25 14:49 | 55.70568 | 50.38608 | 36612 ft | 487 kts | 65° |
| 2026-04-25 14:50 | 55.73190 | 50.49685 | 36585 ft | 487 kts | 64° |
| 2026-04-25 14:50 | 55.75825 | 50.60765 | 36591 ft | 487 kts | 65° |
| 2026-04-25 14:51 | 55.78452 | 50.71853 | 36587 ft | 487 kts | 65° |
| 2026-04-25 14:51 | 55.81069 | 50.82974 | 36586 ft | 487 kts | 65° |
| 2026-04-25 14:52 | 55.83671 | 50.94094 | 36582 ft | 487 kts | 65° |
| 2026-04-25 14:52 | 55.85829 | 51.03361 | 36593 ft | 487 kts | 65° |
| 2026-04-25 14:53 | 55.88848 | 51.16397 | 36583 ft | 488 kts | 65° |
| 2026-04-25 14:53 | 55.91426 | 51.27588 | 36572 ft | 488 kts | 66° |
| 2026-04-25 14:54 | 55.93991 | 51.38784 | 36580 ft | 488 kts | 66° |
| 2026-04-25 14:54 | 55.96532 | 51.49932 | 36572 ft | 488 kts | 66° |
| 2026-04-25 14:55 | 55.99082 | 51.61177 | 36582 ft | 488 kts | 66° |
| 2026-04-25 14:55 | 56.01620 | 51.72430 | 36570 ft | 489 kts | 66° |
| 2026-04-25 14:56 | 56.04442 | 51.83455 | 36563 ft | 486 kts | 56° |
| 2026-04-25 14:56 | 56.08595 | 51.92933 | 36567 ft | 483 kts | 47° |
| 2026-04-25 14:57 | 56.12990 | 52.02025 | 36561 ft | 483 kts | 47° |
| 2026-04-25 14:57 | 56.17348 | 52.11240 | 36558 ft | 484 kts | 48° |
| 2026-04-25 14:58 | 56.21670 | 52.20530 | 36548 ft | 485 kts | 48° |
| 2026-04-25 14:58 | 56.25993 | 52.29853 | 36552 ft | 485 kts | 48° |
| 2026-04-25 14:59 | 56.30306 | 52.39208 | 36542 ft | 486 kts | 49° |
| 2026-04-25 14:59 | 56.34581 | 52.48562 | 36540 ft | 486 kts | 49° |
| 2026-04-25 15:00 | 56.38875 | 52.57985 | 36541 ft | 486 kts | 49° |
| 2026-04-25 15:00 | 56.43163 | 52.67435 | 36544 ft | 486 kts | 49° |
| 2026-04-25 15:01 | 56.47583 | 52.76673 | 36543 ft | 485 kts | 44° |
| 2026-04-25 15:01 | 56.52283 | 52.85428 | 36540 ft | 485 kts | 44° |
| 2026-04-25 15:02 | 56.56981 | 52.94208 | 36543 ft | 485 kts | 44° |
| 2026-04-25 15:02 | 56.61634 | 53.03082 | 36539 ft | 485 kts | 45° |
| 2026-04-25 15:03 | 56.66269 | 53.11990 | 36540 ft | 486 kts | 45° |
| 2026-04-25 15:03 | 56.70889 | 53.20981 | 36548 ft | 486 kts | 46° |
| 2026-04-25 15:04 | 56.75467 | 53.29931 | 36545 ft | 486 kts | 45° |
| 2026-04-25 15:04 | 56.80075 | 53.38959 | 36536 ft | 486 kts | 45° |
| 2026-04-25 15:05 | 56.84642 | 53.48092 | 36538 ft | 487 kts | 48° |
| 2026-04-25 15:06 | 56.90997 | 53.62632 | 36548 ft | 488 kts | 51° |
| 2026-04-25 15:06 | 56.95209 | 53.72404 | 36540 ft | 489 kts | 50° |
| 2026-04-25 15:07 | 56.99445 | 53.82142 | 36538 ft | 489 kts | 50° |
| 2026-04-25 15:07 | 57.03687 | 53.91907 | 36542 ft | 489 kts | 50° |
| 2026-04-25 15:07 | 57.05821 | 53.96837 | 36040 ft | 496 kts | 50° |
| 2026-04-25 15:08 | 57.07975 | 54.01783 | 35464 ft | 494 kts | 50° |
| 2026-04-25 15:08 | 57.10135 | 54.06696 | 34795 ft | 494 kts | 50° |
| 2026-04-25 15:08 | 57.12277 | 54.11557 | 34103 ft | 496 kts | 50° |
| 2026-04-25 15:08 | 57.14446 | 54.16494 | 33358 ft | 497 kts | 50° |
| 2026-04-25 15:09 | 57.16621 | 54.21464 | 32528 ft | 498 kts | 50° |
| 2026-04-25 15:09 | 57.18786 | 54.26429 | 31765 ft | 497 kts | 50° |
| 2026-04-25 15:09 | 57.23050 | 54.36308 | 30913 ft | 480 kts | 51° |
| 2026-04-25 15:10 | 57.25085 | 54.41080 | 30771 ft | 466 kts | 51° |
| 2026-04-25 15:10 | 57.27059 | 54.45721 | 30659 ft | 453 kts | 51° |
| 2026-04-25 15:10 | 57.30836 | 54.54611 | 30622 ft | 425 kts | 51° |
| 2026-04-25 15:11 | 57.32649 | 54.58884 | 30397 ft | 422 kts | 51° |
| 2026-04-25 15:11 | 57.34475 | 54.63191 | 29623 ft | 430 kts | 51° |
| 2026-04-25 15:11 | 57.36347 | 54.67615 | 28338 ft | 444 kts | 51° |
| 2026-04-25 15:12 | 57.40299 | 54.76983 | 25642 ft | 473 kts | 50° |
| 2026-04-25 15:12 | 57.42319 | 54.81796 | 24892 ft | 471 kts | 50° |
| 2026-04-25 15:12 | 57.44020 | 54.86948 | 24327 ft | 469 kts | 66° |
| 2026-04-25 15:12 | 57.44407 | 54.88766 | 24164 ft | 467 kts | 68° |
| 2026-04-25 15:13 | 57.46238 | 54.98060 | 23350 ft | 455 kts | 69° |
| 2026-04-25 15:13 | 57.48401 | 55.08924 | 22113 ft | 444 kts | 69° |
| 2026-04-25 15:13 | 57.49499 | 55.14350 | 21395 ft | 440 kts | 69° |
| 2026-04-25 15:14 | 57.50566 | 55.19588 | 20742 ft | 436 kts | 69° |
| 2026-04-25 15:14 | 57.51637 | 55.24835 | 20101 ft | 432 kts | 69° |
| 2026-04-25 15:14 | 57.52697 | 55.30031 | 19495 ft | 428 kts | 69° |
| 2026-04-25 15:14 | 57.53750 | 55.35201 | 18877 ft | 424 kts | 69° |
| 2026-04-25 15:15 | 57.54789 | 55.40319 | 18262 ft | 421 kts | 69° |
| 2026-04-25 15:15 | 57.55816 | 55.45390 | 17656 ft | 418 kts | 69° |
| 2026-04-25 15:15 | 57.56835 | 55.50432 | 17011 ft | 414 kts | 70° |
| 2026-04-25 15:15 | 57.57840 | 55.55427 | 16435 ft | 409 kts | 70° |
| 2026-04-25 15:16 | 57.58831 | 55.60358 | 15842 ft | 405 kts | 70° |
| 2026-04-25 15:16 | 57.59813 | 55.65259 | 15203 ft | 402 kts | 71° |
| 2026-04-25 15:16 | 57.61751 | 55.74972 | 14004 ft | 397 kts | 71° |
| 2026-04-25 15:17 | 57.63655 | 55.84556 | 12829 ft | 391 kts | 71° |
| 2026-04-25 15:17 | 57.64594 | 55.89304 | 12238 ft | 388 kts | 71° |
| 2026-04-25 15:17 | 57.65524 | 55.94014 | 11639 ft | 385 kts | 71° |
| 2026-04-25 15:18 | 57.66447 | 55.98699 | 11041 ft | 383 kts | 71° |
| 2026-04-25 15:18 | 57.68257 | 56.07920 | 10189 ft | 369 kts | 72° |
| 2026-04-25 15:18 | 57.69128 | 56.12368 | 9977 ft | 358 kts | 72° |
| 2026-04-25 15:19 | 57.69955 | 56.16604 | 9822 ft | 346 kts | 72° |
| 2026-04-25 15:19 | 57.70232 | 56.18025 | 9767 ft | 343 kts | 72° |
| 2026-04-25 15:19 | 57.71559 | 56.24851 | 9531 ft | 325 kts | 72° |
| 2026-04-25 15:19 | 57.72313 | 56.28736 | 9529 ft | 311 kts | 73° |
| 2026-04-25 15:20 | 57.73040 | 56.32489 | 9342 ft | 304 kts | 73° |
| 2026-04-25 15:20 | 57.73759 | 56.36224 | 8719 ft | 313 kts | 73° |
| 2026-04-25 15:20 | 57.74494 | 56.40042 | 8374 ft | 311 kts | 73° |
| 2026-04-25 15:20 | 57.75307 | 56.43789 | 8020 ft | 312 kts | 61° |
| 2026-04-25 15:21 | 57.76783 | 56.46722 | 7705 ft | 310 kts | 33° |
| 2026-04-25 15:21 | 57.78718 | 56.48362 | 7406 ft | 304 kts | 15° |
| 2026-04-25 15:21 | 57.80737 | 56.49502 | 7104 ft | 302 kts | 13° |
| 2026-04-25 15:21 | 57.82744 | 56.50607 | 6805 ft | 300 kts | 14° |
| 2026-04-25 15:22 | 57.84738 | 56.51727 | 6514 ft | 298 kts | 14° |
| 2026-04-25 15:22 | 57.86714 | 56.52864 | 6217 ft | 296 kts | 15° |
| 2026-04-25 15:22 | 57.88680 | 56.54001 | 5943 ft | 295 kts | 15° |
| 2026-04-25 15:22 | 57.90649 | 56.55101 | 5675 ft | 295 kts | 9° |
| 2026-04-25 15:23 | 57.92661 | 56.55081 | 5392 ft | 286 kts | 338° |
| 2026-04-25 15:23 | 57.94399 | 56.53472 | 5135 ft | 273 kts | 315° |
| 2026-04-25 15:23 | 57.95784 | 56.51088 | 4898 ft | 269 kts | 309° |
| 2026-04-25 15:23 | 57.97125 | 56.48638 | 4743 ft | 265 kts | 309° |
| 2026-04-25 15:24 | 57.98433 | 56.46260 | 4734 ft | 257 kts | 309° |
| 2026-04-25 15:24 | 57.99686 | 56.43986 | 4725 ft | 249 kts | 309° |
| 2026-04-25 15:24 | 58.00919 | 56.41753 | 4710 ft | 243 kts | 309° |
| 2026-04-25 15:24 | 58.01329 | 56.41012 | 4706 ft | 240 kts | 309° |
| 2026-04-25 15:25 | 58.03284 | 56.37477 | 4622 ft | 229 kts | 309° |
| 2026-04-25 15:25 | 58.04415 | 56.35437 | 4467 ft | 221 kts | 309° |
| 2026-04-25 15:25 | 58.05442 | 56.33375 | 4216 ft | 208 kts | 293° |
| 2026-04-25 15:25 | 58.05692 | 56.30958 | 4022 ft | 178 kts | 251° |
| 2026-04-25 15:26 | 58.05185 | 56.28967 | 3828 ft | 163 kts | 230° |
| 2026-04-25 15:26 | 58.04433 | 56.27440 | 3622 ft | 155 kts | 224° |
| 2026-04-25 15:26 | 58.03713 | 56.25969 | 3421 ft | 150 kts | 225° |
| 2026-04-25 15:26 | 58.03004 | 56.24541 | 3250 ft | 149 kts | 224° |
| 2026-04-25 15:27 | 58.02291 | 56.23139 | 3067 ft | 147 kts | 225° |
| 2026-04-25 15:27 | 58.01597 | 56.21789 | 2911 ft | 140 kts | 224° |
| 2026-04-25 15:27 | 58.00267 | 56.19215 | 2691 ft | 138 kts | 224° |
| 2026-04-25 15:28 | 57.99596 | 56.17917 | 2521 ft | 139 kts | 223° |
| 2026-04-25 15:28 | 57.98918 | 56.16609 | 2326 ft | 140 kts | 223° |
| 2026-04-25 15:28 | 57.98253 | 56.15327 | 2203 ft | 133 kts | 223° |
| 2026-04-25 15:28 | 57.97625 | 56.14070 | 2085 ft | 131 kts | 223° |
| 2026-04-25 15:29 | 57.96962 | 56.12805 | 1785 ft | 137 kts | 221° |
| 2026-04-25 15:29 | 57.96315 | 56.11525 | 1537 ft | 134 kts | 222° |
| 2026-04-25 15:29 | 57.95659 | 56.10289 | 1387 ft | 135 kts | 220° |
| 2026-04-25 15:29 | 57.94984 | 56.08995 | 1164 ft | 142 kts | 223° |
| 2026-04-25 15:30 | 57.94521 | 56.08081 | 1044 ft | 146 kts | 223° |
| 2026-04-25 15:30 | 57.93807 | 56.06711 | 829 ft | 146 kts | 224° |
| 2026-04-25 15:30 | 57.93099 | 56.05327 | 623 ft | 146 kts | 226° |
| 2026-04-25 15:30 | 57.92391 | 56.03963 | 426 ft | 145 kts | 224° |
| 2026-04-25 15:31 | 57.91734 | 56.02696 | 401 ft | 117 kts | 226° |
| 2026-04-25 15:31 | 57.91279 | 56.01807 | 397 ft | 74 kts | 226° |
| 2026-04-25 15:31 | 57.90982 | 56.01234 | 390 ft | 53 kts | 226° |
| 2026-04-25 15:31 | 57.90869 | 56.01016 | 395 ft | 17 kts | 225° |
| 2026-04-25 15:32 | 57.90795 | 56.00892 | 396 ft | 9 kts | 213° |
| 2026-04-25 15:32 | 57.90781 | 56.00834 | 395 ft | 4 kts | 324° |
| 2026-04-25 15:32 | 57.90810 | 56.00865 | 395 ft | 10 kts | 47° |
| 2026-04-25 15:33 | 57.90936 | 56.01138 | 395 ft | 14 kts | 46° |
| 2026-04-25 15:33 | 57.91004 | 56.01270 | 394 ft | 14 kts | 46° |
| 2026-04-25 15:33 | 57.91077 | 56.01412 | 395 ft | 15 kts | 45° |
| 2026-04-25 15:33 | 57.91150 | 56.01550 | 388 ft | 15 kts | 45° |
| 2026-04-25 15:34 | 57.91220 | 56.01684 | 389 ft | 14 kts | 46° |
| 2026-04-25 15:34 | 57.91315 | 56.01872 | 398 ft | 22 kts | 46° |
| 2026-04-25 15:34 | 57.91421 | 56.02078 | 389 ft | 22 kts | 46° |
| 2026-04-25 15:34 | 57.91490 | 56.02211 | 389 ft | 21 kts | 46° |
| 2026-04-25 15:35 | 57.91641 | 56.02483 | 397 ft | 8 kts | 18° |
| 2026-04-25 15:35 | 57.91698 | 56.02443 | 397 ft | 10 kts | 318° |
| 2026-04-25 15:35 | 57.91748 | 56.02352 | 395 ft | 10 kts | 315° |
| 2026-04-25 15:36 | 57.91845 | 56.02185 | 396 ft | 8 kts | 337° |
| 2026-04-25 15:36 | 57.91892 | 56.02217 | 393 ft | 7 kts | 44° |
| 2026-04-25 15:36 | 57.91927 | 56.02286 | 395 ft | 7 kts | 46° |
| 2026-04-25 15:37 | 57.91956 | 56.02332 | 394 ft | 4 kts | 23° |
| 2026-04-25 15:37 | 57.91985 | 56.02320 | 394 ft | 5 kts | 328° |
| 2026-04-25 15:37 | 57.92008 | 56.02282 | 391 ft | 3 kts | 317° |
| 2026-04-25 15:37 | 57.92015 | 56.02270 | 396 ft | 0 kts | 317° |